sensor_id;sensor_type;location;lat;lon;timestamp;temperature;humidity
5621;DHT22;2832;50.864;12.186;2022-07-30T01:32:59;23.60;99.90
5621;DHT22;2832;50.864;12.186;2022-07-30T01:35:30;23.60;99.90
5621;DHT22;2832;50.864;12.186;2022-07-30T01:38:00;23.60;99.90
5621;DHT22;2832;50.864;12.186;2022-07-30T01:40:28;23.60;99.90
5621;DHT22;2832;50.864;12.186;2022-07-30T01:42:58;23.60;99.90
5621;DHT22;2832;50.864;12.186;2022-07-30T01:45:28;23.50;99.90
5621;DHT22;2832;50.864;12.186;2022-07-30T01:47:59;23.50;99.90
5621;DHT22;2832;50.864;12.186;2022-07-30T01:50:28;23.50;99.90
5621;DHT22;2832;50.864;12.186;2022-07-30T01:52:57;23.50;99.90
5621;DHT22;2832;50.864;12.186;2022-07-30T01:55:29;23.50;99.90
5621;DHT22;2832;50.864;12.186;2022-07-30T01:57:58;23.50;99.90
5621;DHT22;2832;50.864;12.186;2022-07-30T02:00:28;23.50;99.90
5621;DHT22;2832;50.864;12.186;2022-07-30T02:02:58;23.50;99.90
5621;DHT22;2832;50.864;12.186;2022-07-30T02:05:27;23.50;99.90
5621;DHT22;2832;50.864;12.186;2022-07-30T02:08:00;23.50;99.90
5621;DHT22;2832;50.864;12.186;2022-07-30T02:10:32;23.50;99.90
5621;DHT22;2832;50.864;12.186;2022-07-30T02:13:04;23.50;99.90
5621;DHT22;2832;50.864;12.186;2022-07-30T02:15:34;23.50;99.90
5621;DHT22;2832;50.864;12.186;2022-07-30T02:18:12;23.50;99.90
5621;DHT22;2832;50.864;12.186;2022-07-30T02:20:44;23.50;99.90
5621;DHT22;2832;50.864;12.186;2022-07-30T02:23:14;23.50;99.90
5621;DHT22;2832;50.864;12.186;2022-07-30T02:25:46;23.50;99.90
5621;DHT22;2832;50.864;12.186;2022-07-30T02:28:16;23.50;99.90
5621;DHT22;2832;50.864;12.186;2022-07-30T02:30:48;23.40;99.90
5621;DHT22;2832;50.864;12.186;2022-07-30T02:33:22;23.40;99.90
5621;DHT22;2832;50.864;12.186;2022-07-30T02:35:51;23.30;99.90
5621;DHT22;2832;50.864;12.186;2022-07-30T02:38:20;23.30;99.90
5621;DHT22;2832;50.864;12.186;2022-07-30T02:40:52;23.20;99.90
5621;DHT22;2832;50.864;12.186;2022-07-30T02:43:21;23.20;99.90
5621;DHT22;2832;50.864;12.186;2022-07-30T02:45:51;23.10;99.90
5621;DHT22;2832;50.864;12.186;2022-07-30T02:48:21;23.10;99.90
5621;DHT22;2832;50.864;12.186;2022-07-30T02:50:51;23.10;99.90
5621;DHT22;2832;50.864;12.186;2022-07-30T02:53:21;23.10;99.90
5621;DHT22;2832;50.864;12.186;2022-07-30T02:55:53;23.00;99.90
5621;DHT22;2832;50.864;12.186;2022-07-30T02:58:25;23.00;99.90
5621;DHT22;2832;50.864;12.186;2022-07-30T03:00:56;23.10;99.90
5621;DHT22;2832;50.864;12.186;2022-07-30T03:03:26;23.00;99.90
5621;DHT22;2832;50.864;12.186;2022-07-30T03:05:55;23.00;99.90
5621;DHT22;2832;50.864;12.186;2022-07-30T03:08:25;23.00;99.90
5621;DHT22;2832;50.864;12.186;2022-07-30T03:10:55;23.00;99.90
5621;DHT22;2832;50.864;12.186;2022-07-30T03:13:23;23.00;99.90
5621;DHT22;2832;50.864;12.186;2022-07-30T03:15:52;22.90;99.90
5621;DHT22;2832;50.864;12.186;2022-07-30T03:18:21;22.90;99.90
5621;DHT22;2832;50.864;12.186;2022-07-30T03:20:54;22.90;99.90
5621;DHT22;2832;50.864;12.186;2022-07-30T03:23:23;22.90;99.90
5621;DHT22;2832;50.864;12.186;2022-07-30T03:25:53;22.90;99.90
5621;DHT22;2832;50.864;12.186;2022-07-30T03:28:23;22.80;99.90
5621;DHT22;2832;50.864;12.186;2022-07-30T03:30:52;22.80;99.90
5621;DHT22;2832;50.864;12.186;2022-07-30T03:33:20;22.80;99.90
5621;DHT22;2832;50.864;12.186;2022-07-30T03:35:51;22.80;99.90
5621;DHT22;2832;50.864;12.186;2022-07-30T03:38:19;22.80;99.90
5621;DHT22;2832;50.864;12.186;2022-07-30T03:40:50;22.80;99.90
5621;DHT22;2832;50.864;12.186;2022-07-30T03:43:18;22.80;99.90
5621;DHT22;2832;50.864;12.186;2022-07-30T03:45:49;22.70;99.90
5621;DHT22;2832;50.864;12.186;2022-07-30T03:48:18;22.70;99.90
5621;DHT22;2832;50.864;12.186;2022-07-30T03:50:47;22.70;99.90
5621;DHT22;2832;50.864;12.186;2022-07-30T03:53:18;22.60;99.90
5621;DHT22;2832;50.864;12.186;2022-07-30T03:55:49;22.60;99.90
5621;DHT22;2832;50.864;12.186;2022-07-30T03:58:17;22.60;99.90
5621;DHT22;2832;50.864;12.186;2022-07-30T04:00:46;22.50;99.90
5621;DHT22;2832;50.864;12.186;2022-07-30T04:03:24;22.50;99.90
5621;DHT22;2832;50.864;12.186;2022-07-30T04:05:52;22.50;99.90
5621;DHT22;2832;50.864;12.186;2022-07-30T04:08:21;22.50;99.90
5621;DHT22;2832;50.864;12.186;2022-07-30T04:10:50;22.40;99.90
5621;DHT22;2832;50.864;12.186;2022-07-30T04:13:18;22.30;99.90
5621;DHT22;2832;50.864;12.186;2022-07-30T04:15:50;22.30;99.90
5621;DHT22;2832;50.864;12.186;2022-07-30T04:18:21;22.30;99.90
5621;DHT22;2832;50.864;12.186;2022-07-30T04:20:51;22.30;99.90
5621;DHT22;2832;50.864;12.186;2022-07-30T04:23:21;22.30;99.90
5621;DHT22;2832;50.864;12.186;2022-07-30T04:25:50;22.20;99.90
5621;DHT22;2832;50.864;12.186;2022-07-30T04:28:18;22.20;99.90
5621;DHT22;2832;50.864;12.186;2022-07-30T04:30:46;22.20;99.90
5621;DHT22;2832;50.864;12.186;2022-07-30T04:33:14;22.20;99.90
5621;DHT22;2832;50.864;12.186;2022-07-30T05:34:18;22.00;99.90
5621;DHT22;2832;50.864;12.186;2022-07-30T05:36:45;22.00;99.90
5621;DHT22;2832;50.864;12.186;2022-07-30T05:39:16;22.00;99.90
5621;DHT22;2832;50.864;12.186;2022-07-30T05:41:43;22.10;99.90
5621;DHT22;2832;50.864;12.186;2022-07-30T05:44:11;22.00;99.90
5621;DHT22;2832;50.864;12.186;2022-07-30T05:46:39;22.00;99.90
5621;DHT22;2832;50.864;12.186;2022-07-30T05:49:06;22.00;99.90
5621;DHT22;2832;50.864;12.186;2022-07-30T05:51:35;22.00;99.90
5621;DHT22;2832;50.864;12.186;2022-07-30T05:54:03;22.00;99.90
5621;DHT22;2832;50.864;12.186;2022-07-30T05:56:30;22.00;99.90
5621;DHT22;2832;50.864;12.186;2022-07-30T05:58:58;22.10;99.90
5621;DHT22;2832;50.864;12.186;2022-07-30T06:01:26;22.10;99.90
5621;DHT22;2832;50.864;12.186;2022-07-30T06:03:54;22.10;99.90
5621;DHT22;2832;50.864;12.186;2022-07-30T06:06:21;22.10;99.90
5621;DHT22;2832;50.864;12.186;2022-07-30T06:08:51;22.10;99.90
5621;DHT22;2832;50.864;12.186;2022-07-30T06:11:18;22.10;99.90
5621;DHT22;2832;50.864;12.186;2022-07-30T06:13:46;22.10;99.90
5621;DHT22;2832;50.864;12.186;2022-07-30T06:16:14;22.10;99.90
5621;DHT22;2832;50.864;12.186;2022-07-30T06:18:42;22.10;99.90
5621;DHT22;2832;50.864;12.186;2022-07-30T06:21:10;22.10;99.90
5621;DHT22;2832;50.864;12.186;2022-07-30T06:23:37;22.10;99.90
5621;DHT22;2832;50.864;12.186;2022-07-30T06:26:07;22.10;99.90
5621;DHT22;2832;50.864;12.186;2022-07-30T06:28:34;22.00;99.90
5621;DHT22;2832;50.864;12.186;2022-07-30T06:31:02;21.90;99.90
5621;DHT22;2832;50.864;12.186;2022-07-30T06:33:30;22.00;99.90
5621;DHT22;2832;50.864;12.186;2022-07-30T10:36:47;22.10;99.90
5621;DHT22;2832;50.864;12.186;2022-07-30T12:39:37;21.80;99.90
5621;DHT22;2832;50.864;12.186;2022-07-30T12:42:04;21.80;99.90
5621;DHT22;2832;50.864;12.186;2022-07-30T12:44:37;21.80;99.90
5621;DHT22;2832;50.864;12.186;2022-07-30T12:47:17;21.80;99.90
5621;DHT22;2832;50.864;12.186;2022-07-30T12:49:47;21.70;99.90
5621;DHT22;2832;50.864;12.186;2022-07-30T12:52:25;21.70;99.90
5621;DHT22;2832;50.864;12.186;2022-07-30T12:55:00;21.80;99.90
5621;DHT22;2832;50.864;12.186;2022-07-30T12:57:27;21.80;99.90
5621;DHT22;2832;50.864;12.186;2022-07-30T13:00:03;21.80;99.90
5621;DHT22;2832;50.864;12.186;2022-07-30T13:02:33;21.80;99.90
5621;DHT22;2832;50.864;12.186;2022-07-30T13:05:02;21.80;99.90
5621;DHT22;2832;50.864;12.186;2022-07-30T13:07:30;21.80;99.90
5621;DHT22;2832;50.864;12.186;2022-07-30T13:10:11;21.70;99.90
5621;DHT22;2832;50.864;12.186;2022-07-30T13:12:44;21.80;99.90
5621;DHT22;2832;50.864;12.186;2022-07-30T13:15:16;21.80;99.90
5621;DHT22;2832;50.864;12.186;2022-07-30T13:17:44;21.80;99.90
5621;DHT22;2832;50.864;12.186;2022-07-30T13:20:13;21.80;99.90
5621;DHT22;2832;50.864;12.186;2022-07-30T13:22:41;21.80;99.90
5621;DHT22;2832;50.864;12.186;2022-07-30T13:28:59;21.80;99.90
5621;DHT22;2832;50.864;12.186;2022-07-30T13:31:27;21.80;99.90
5621;DHT22;2832;50.864;12.186;2022-07-30T13:33:54;21.70;99.90
5621;DHT22;2832;50.864;12.186;2022-07-30T13:36:23;21.70;99.90
5621;DHT22;2832;50.864;12.186;2022-07-30T15:39:39;21.90;99.90
5621;DHT22;2832;50.864;12.186;2022-07-30T15:42:07;21.90;99.90
5621;DHT22;2832;50.864;12.186;2022-07-30T15:44:35;21.90;99.90
5621;DHT22;2832;50.864;12.186;2022-07-30T15:47:02;21.90;99.90
5621;DHT22;2832;50.864;12.186;2022-07-30T15:49:30;22.00;99.90
5621;DHT22;2832;50.864;12.186;2022-07-30T15:51:58;21.90;99.90
5621;DHT22;2832;50.864;12.186;2022-07-30T15:54:30;22.00;99.90
5621;DHT22;2832;50.864;12.186;2022-07-30T15:56:59;22.00;99.90
5621;DHT22;2832;50.864;12.186;2022-07-30T15:59:27;22.00;99.90
5621;DHT22;2832;50.864;12.186;2022-07-30T16:01:54;22.00;99.90
5621;DHT22;2832;50.864;12.186;2022-07-30T16:04:23;22.10;99.90
5621;DHT22;2832;50.864;12.186;2022-07-30T16:06:55;22.10;99.90
5621;DHT22;2832;50.864;12.186;2022-07-30T16:09:23;22.10;99.90
5621;DHT22;2832;50.864;12.186;2022-07-30T16:11:51;22.10;99.90
5621;DHT22;2832;50.864;12.186;2022-07-30T16:14:20;22.10;99.90
5621;DHT22;2832;50.864;12.186;2022-07-30T16:16:48;22.10;99.90
5621;DHT22;2832;50.864;12.186;2022-07-30T16:19:15;22.10;99.90
5621;DHT22;2832;50.864;12.186;2022-07-30T16:21:43;22.10;99.90
5621;DHT22;2832;50.864;12.186;2022-07-30T16:24:12;22.10;99.90
5621;DHT22;2832;50.864;12.186;2022-07-30T16:26:41;22.10;99.90
5621;DHT22;2832;50.864;12.186;2022-07-30T16:29:09;22.10;99.90
5621;DHT22;2832;50.864;12.186;2022-07-30T16:31:39;22.10;99.90
5621;DHT22;2832;50.864;12.186;2022-07-30T16:34:07;22.00;99.90
5621;DHT22;2832;50.864;12.186;2022-07-30T16:36:35;22.00;99.90
5621;DHT22;2832;50.864;12.186;2022-07-30T16:39:03;22.00;99.90
5621;DHT22;2832;50.864;12.186;2022-07-30T16:41:31;22.00;99.90
5621;DHT22;2832;50.864;12.186;2022-07-30T16:43:59;22.00;99.90
5621;DHT22;2832;50.864;12.186;2022-07-30T16:46:27;22.00;99.90
5621;DHT22;2832;50.864;12.186;2022-07-30T16:48:56;22.00;99.90
5621;DHT22;2832;50.864;12.186;2022-07-30T16:51:24;22.00;99.90
5621;DHT22;2832;50.864;12.186;2022-07-30T16:53:52;21.90;99.90
5621;DHT22;2832;50.864;12.186;2022-07-30T16:56:19;21.90;99.90
5621;DHT22;2832;50.864;12.186;2022-07-30T16:58:47;21.90;99.90
5621;DHT22;2832;50.864;12.186;2022-07-30T17:01:15;21.90;99.90
5621;DHT22;2832;50.864;12.186;2022-07-30T17:03:43;21.90;99.90
5621;DHT22;2832;50.864;12.186;2022-07-30T17:06:12;21.90;99.90
5621;DHT22;2832;50.864;12.186;2022-07-30T17:08:40;21.80;99.90
5621;DHT22;2832;50.864;12.186;2022-07-30T17:11:07;21.90;99.90
5621;DHT22;2832;50.864;12.186;2022-07-30T17:13:35;21.80;99.90
5621;DHT22;2832;50.864;12.186;2022-07-30T17:16:05;21.80;99.90
5621;DHT22;2832;50.864;12.186;2022-07-30T17:18:36;21.80;99.90
5621;DHT22;2832;50.864;12.186;2022-07-30T17:21:04;21.90;99.90
5621;DHT22;2832;50.864;12.186;2022-07-30T17:23:33;21.90;99.90
5621;DHT22;2832;50.864;12.186;2022-07-30T17:26:01;21.90;99.90
5621;DHT22;2832;50.864;12.186;2022-07-30T17:28:29;21.90;99.90
5621;DHT22;2832;50.864;12.186;2022-07-30T17:30:58;21.80;99.90
5621;DHT22;2832;50.864;12.186;2022-07-30T17:33:25;21.80;99.90
5621;DHT22;2832;50.864;12.186;2022-07-30T17:35:53;21.80;99.90
5621;DHT22;2832;50.864;12.186;2022-07-30T17:38:21;21.90;99.90
5621;DHT22;2832;50.864;12.186;2022-07-30T17:40:50;21.90;99.90
5621;DHT22;2832;50.864;12.186;2022-07-30T17:43:18;21.90;99.90
5621;DHT22;2832;50.864;12.186;2022-07-30T17:45:46;21.80;99.90
5621;DHT22;2832;50.864;12.186;2022-07-30T17:48:18;21.90;99.90
5621;DHT22;2832;50.864;12.186;2022-07-30T17:50:46;21.80;99.90
5621;DHT22;2832;50.864;12.186;2022-07-30T17:53:14;21.80;99.90
5621;DHT22;2832;50.864;12.186;2022-07-30T17:55:46;21.80;99.90
5621;DHT22;2832;50.864;12.186;2022-07-30T17:58:15;21.90;99.90
5621;DHT22;2832;50.864;12.186;2022-07-30T18:00:43;21.90;99.90
5621;DHT22;2832;50.864;12.186;2022-07-30T18:03:11;21.90;99.90
5621;DHT22;2832;50.864;12.186;2022-07-30T18:05:42;21.90;99.90
5621;DHT22;2832;50.864;12.186;2022-07-30T18:08:10;21.90;99.90
5621;DHT22;2832;50.864;12.186;2022-07-30T18:10:40;21.80;99.90
5621;DHT22;2832;50.864;12.186;2022-07-30T18:13:09;21.80;99.90
5621;DHT22;2832;50.864;12.186;2022-07-30T18:15:40;21.80;99.90
5621;DHT22;2832;50.864;12.186;2022-07-30T18:18:08;21.80;99.90
5621;DHT22;2832;50.864;12.186;2022-07-30T18:20:36;21.80;99.90
5621;DHT22;2832;50.864;12.186;2022-07-30T18:23:05;21.80;99.90
5621;DHT22;2832;50.864;12.186;2022-07-30T18:25:34;21.80;99.90
5621;DHT22;2832;50.864;12.186;2022-07-30T18:28:03;21.80;99.90
5621;DHT22;2832;50.864;12.186;2022-07-30T18:30:30;21.70;99.90
5621;DHT22;2832;50.864;12.186;2022-07-30T18:33:00;21.70;99.90
5621;DHT22;2832;50.864;12.186;2022-07-30T18:35:28;21.70;99.90
5621;DHT22;2832;50.864;12.186;2022-07-30T18:37:56;21.70;99.90
5621;DHT22;2832;50.864;12.186;2022-07-30T18:40:23;21.70;99.90
5621;DHT22;2832;50.864;12.186;2022-07-30T20:37:55;21.50;99.90
5621;DHT22;2832;50.864;12.186;2022-07-30T20:40:29;21.50;99.90
5621;DHT22;2832;50.864;12.186;2022-07-30T20:42:57;21.50;99.90
5621;DHT22;2832;50.864;12.186;2022-07-30T20:45:25;21.50;99.90
5621;DHT22;2832;50.864;12.186;2022-07-30T20:47:57;21.50;99.90
5621;DHT22;2832;50.864;12.186;2022-07-30T20:50:26;21.50;99.90
5621;DHT22;2832;50.864;12.186;2022-07-30T20:52:58;21.40;99.90
5621;DHT22;2832;50.864;12.186;2022-07-30T20:55:27;21.50;99.90
5621;DHT22;2832;50.864;12.186;2022-07-30T20:58:00;21.50;99.90
5621;DHT22;2832;50.864;12.186;2022-07-30T21:00:31;21.50;99.90
5621;DHT22;2832;50.864;12.186;2022-07-30T21:03:00;21.50;99.90
5621;DHT22;2832;50.864;12.186;2022-07-30T21:05:31;21.50;99.90
5621;DHT22;2832;50.864;12.186;2022-07-30T21:08:07;21.50;99.90
5621;DHT22;2832;50.864;12.186;2022-07-30T21:10:44;21.40;99.90
5621;DHT22;2832;50.864;12.186;2022-07-30T21:13:14;21.50;99.90
5621;DHT22;2832;50.864;12.186;2022-07-30T21:15:44;21.40;99.90
5621;DHT22;2832;50.864;12.186;2022-07-30T21:18:13;21.40;99.90
5621;DHT22;2832;50.864;12.186;2022-07-30T21:20:45;21.40;99.90
5621;DHT22;2832;50.864;12.186;2022-07-30T21:23:21;21.40;99.90
5621;DHT22;2832;50.864;12.186;2022-07-30T21:25:52;21.40;99.90
5621;DHT22;2832;50.864;12.186;2022-07-30T21:28:25;21.40;99.90
5621;DHT22;2832;50.864;12.186;2022-07-30T21:30:54;21.40;99.90
5621;DHT22;2832;50.864;12.186;2022-07-30T21:33:27;21.40;99.90
5621;DHT22;2832;50.864;12.186;2022-07-30T21:35:57;21.40;99.90
5621;DHT22;2832;50.864;12.186;2022-07-30T21:38:32;21.40;99.90
5621;DHT22;2832;50.864;12.186;2022-07-30T21:41:03;21.50;99.90
5621;DHT22;2832;50.864;12.186;2022-07-30T21:43:37;21.40;99.90
5621;DHT22;2832;50.864;12.186;2022-07-30T21:46:06;21.40;99.90
5621;DHT22;2832;50.864;12.186;2022-07-30T21:48:35;21.40;99.90
5621;DHT22;2832;50.864;12.186;2022-07-30T21:51:06;21.40;99.90
5621;DHT22;2832;50.864;12.186;2022-07-30T21:53:41;21.40;99.90
5621;DHT22;2832;50.864;12.186;2022-07-30T21:56:10;21.40;99.90
5621;DHT22;2832;50.864;12.186;2022-07-30T21:58:39;21.40;99.90
5621;DHT22;2832;50.864;12.186;2022-07-30T22:01:12;21.40;99.90
5621;DHT22;2832;50.864;12.186;2022-07-30T22:03:50;21.40;99.90
5621;DHT22;2832;50.864;12.186;2022-07-30T22:06:26;21.40;99.90
5621;DHT22;2832;50.864;12.186;2022-07-30T22:09:00;21.30;99.90
5621;DHT22;2832;50.864;12.186;2022-07-30T22:11:28;21.20;99.90
5621;DHT22;2832;50.864;12.186;2022-07-30T22:13:57;21.30;99.90
5621;DHT22;2832;50.864;12.186;2022-07-30T22:16:25;21.20;99.90
5621;DHT22;2832;50.864;12.186;2022-07-30T22:18:53;21.20;99.90
5621;DHT22;2832;50.864;12.186;2022-07-30T22:21:21;21.20;99.90
5621;DHT22;2832;50.864;12.186;2022-07-30T22:23:50;21.30;99.90
5621;DHT22;2832;50.864;12.186;2022-07-30T22:26:22;21.20;99.90
5621;DHT22;2832;50.864;12.186;2022-07-30T22:28:51;21.20;99.90
5621;DHT22;2832;50.864;12.186;2022-07-30T22:31:19;21.20;99.90
5621;DHT22;2832;50.864;12.186;2022-07-30T22:33:49;21.10;99.90
5621;DHT22;2832;50.864;12.186;2022-07-30T22:36:23;21.10;99.90
5621;DHT22;2832;50.864;12.186;2022-07-30T22:38:57;21.10;99.90
5621;DHT22;2832;50.864;12.186;2022-07-30T22:41:28;21.10;99.90
5621;DHT22;2832;50.864;12.186;2022-07-30T22:43:59;21.10;99.90
5621;DHT22;2832;50.864;12.186;2022-07-30T22:46:27;21.10;99.90
5621;DHT22;2832;50.864;12.186;2022-07-30T22:48:56;21.10;99.90
5621;DHT22;2832;50.864;12.186;2022-07-30T22:51:24;21.10;99.90
5621;DHT22;2832;50.864;12.186;2022-07-30T22:53:55;21.10;99.90
5621;DHT22;2832;50.864;12.186;2022-07-30T22:56:28;21.10;99.90
5621;DHT22;2832;50.864;12.186;2022-07-30T22:58:57;21.00;99.90
5621;DHT22;2832;50.864;12.186;2022-07-30T23:01:31;21.00;99.90
5621;DHT22;2832;50.864;12.186;2022-07-30T23:04:02;21.00;99.90
5621;DHT22;2832;50.864;12.186;2022-07-30T23:06:35;21.00;99.90
5621;DHT22;2832;50.864;12.186;2022-07-30T23:09:09;21.00;99.90
5621;DHT22;2832;50.864;12.186;2022-07-30T23:11:39;21.00;99.90
5621;DHT22;2832;50.864;12.186;2022-07-30T23:14:08;21.00;99.90
5621;DHT22;2832;50.864;12.186;2022-07-30T23:16:37;21.00;99.90
5621;DHT22;2832;50.864;12.186;2022-07-30T23:19:06;21.00;99.90
5621;DHT22;2832;50.864;12.186;2022-07-30T23:21:35;21.00;99.90
5621;DHT22;2832;50.864;12.186;2022-07-30T23:24:03;21.00;99.90
5621;DHT22;2832;50.864;12.186;2022-07-30T23:26:31;21.00;99.90
5621;DHT22;2832;50.864;12.186;2022-07-30T23:29:03;21.00;99.90
5621;DHT22;2832;50.864;12.186;2022-07-30T23:31:38;21.00;99.90
5621;DHT22;2832;50.864;12.186;2022-07-30T23:34:09;21.00;99.90
5621;DHT22;2832;50.864;12.186;2022-07-30T23:36:43;20.90;99.90
5621;DHT22;2832;50.864;12.186;2022-07-30T23:39:17;20.90;99.90
5621;DHT22;2832;50.864;12.186;2022-07-30T23:41:45;20.80;99.90
5621;DHT22;2832;50.864;12.186;2022-07-30T23:44:15;20.80;99.90
5621;DHT22;2832;50.864;12.186;2022-07-30T23:46:52;20.70;99.90
5621;DHT22;2832;50.864;12.186;2022-07-30T23:49:22;20.70;99.90
5621;DHT22;2832;50.864;12.186;2022-07-30T23:51:52;20.70;99.90
5621;DHT22;2832;50.864;12.186;2022-07-30T23:54:24;20.60;99.90
5621;DHT22;2832;50.864;12.186;2022-07-30T23:56:53;20.60;99.90
5621;DHT22;2832;50.864;12.186;2022-07-30T23:59:24;20.60;99.90
